createdAt,value
2018-03-09T00:01:04.655Z,0
2018-03-09T00:02:14.728Z,0
2018-03-09T00:03:24.276Z,0
2018-03-09T00:04:34.390Z,0
2018-03-09T00:05:44.245Z,0
2018-03-09T00:06:53.770Z,0
2018-03-09T00:08:03.306Z,0
2018-03-09T00:09:13.104Z,0
2018-03-09T00:10:23.209Z,0
2018-03-09T00:11:33.016Z,0
2018-03-09T00:12:43.059Z,0
2018-03-09T00:13:53.138Z,0
2018-03-09T00:15:02.662Z,0
2018-03-09T00:16:12.727Z,0
2018-03-09T00:17:22.789Z,0
2018-03-09T00:18:32.588Z,0
2018-03-09T00:19:42.375Z,0
2018-03-09T00:20:52.168Z,0
2018-03-09T00:22:02.225Z,0
2018-03-09T00:23:11.756Z,0
2018-03-09T00:24:21.831Z,0
2018-03-09T00:25:31.624Z,0
2018-03-09T00:26:41.171Z,0
2018-03-09T00:27:51.007Z,0
2018-03-09T00:29:01.110Z,0
2018-03-09T00:30:10.984Z,0
2018-03-09T00:31:20.522Z,0
2018-03-09T00:32:30.578Z,0
2018-03-09T00:33:40.114Z,0
2018-03-09T00:34:50.211Z,0
2018-03-09T00:35:59.472Z,0
2018-03-09T00:37:09.014Z,0
2018-03-09T00:38:19.071Z,0
2018-03-09T00:39:29.126Z,0
2018-03-09T00:40:39.187Z,0
2018-03-09T00:41:48.716Z,0
2018-03-09T00:42:58.260Z,0
2018-03-09T00:44:08.141Z,0
2018-03-09T00:45:17.688Z,0
2018-03-09T00:46:27.796Z,0
2018-03-09T00:47:37.881Z,0
2018-03-09T00:48:47.676Z,0
2018-03-09T00:49:57.741Z,0
2018-03-09T00:51:07.843Z,0
2018-03-09T00:52:17.894Z,0
2018-03-09T00:53:27.716Z,0
2018-03-09T00:54:37.238Z,0
2018-03-09T00:55:46.793Z,0
2018-03-09T00:56:56.322Z,0
2018-03-09T00:58:06.385Z,0
2018-03-09T00:59:16.190Z,0
2018-03-09T01:00:26.428Z,0
2018-03-09T01:01:36.503Z,0
2018-03-09T01:02:46.652Z,0
2018-03-09T01:03:56.179Z,0
2018-03-09T01:05:05.725Z,0
2018-03-09T01:06:15.264Z,0
2018-03-09T01:07:25.057Z,0
2018-03-09T01:08:34.872Z,0
2018-03-09T01:09:44.935Z,0
2018-03-09T01:10:54.712Z,0
2018-03-09T01:12:04.796Z,0
2018-03-09T01:13:14.606Z,0
2018-03-09T01:14:23.995Z,0
2018-03-09T01:15:34.049Z,0
2018-03-09T01:16:44.126Z,0
2018-03-09T01:17:54.207Z,0
2018-03-09T01:19:04.290Z,0
2018-03-09T01:20:14.406Z,0
2018-03-09T01:21:24.478Z,0
2018-03-09T01:22:34.297Z,0
2018-03-09T01:23:44.370Z,0
2018-03-09T01:24:54.442Z,0
2018-03-09T01:26:04.503Z,0
2018-03-09T01:27:14.047Z,0
2018-03-09T01:28:23.836Z,0
2018-03-09T01:29:33.937Z,0
2018-03-09T01:30:43.747Z,0
2018-03-09T01:31:53.543Z,0
2018-03-09T01:33:03.344Z,0
2018-03-09T01:34:13.143Z,0
2018-03-09T01:35:23.209Z,0
2018-03-09T01:36:33.296Z,0
2018-03-09T01:37:43.101Z,0
2018-03-09T01:38:53.208Z,0
2018-03-09T01:40:02.730Z,0
2018-03-09T01:41:12.526Z,0
2018-03-09T01:42:22.317Z,0
2018-03-09T01:43:32.212Z,0
2018-03-09T01:44:42.002Z,0
2018-03-09T01:45:51.803Z,0
2018-03-09T01:47:01.622Z,0
2018-03-09T01:48:11.724Z,0
2018-03-09T01:49:21.848Z,0
2018-03-09T01:50:31.901Z,0
2018-03-09T01:51:41.690Z,0
2018-03-09T01:52:51.736Z,0
2018-03-09T01:54:01.768Z,0
2018-03-09T01:55:11.556Z,0
2018-03-09T01:56:21.396Z,0
2018-03-09T01:57:31.503Z,0
2018-03-09T01:58:41.568Z,0
2018-03-09T01:59:51.621Z,0
2018-03-09T02:01:01.716Z,0
2018-03-09T02:02:11.504Z,0
2018-03-09T02:03:21.566Z,0
2018-03-09T02:04:31.630Z,0
2018-03-09T02:05:41.159Z,0
2018-03-09T02:06:51.266Z,0
2018-03-09T02:08:01.324Z,0
2018-03-09T02:09:11.394Z,0
2018-03-09T02:10:21.445Z,0
2018-03-09T02:11:31.235Z,0
2018-03-09T02:12:41.375Z,0
2018-03-09T02:13:51.180Z,0
2018-03-09T02:15:01.268Z,0
2018-03-09T02:16:11.095Z,0
2018-03-09T02:17:20.634Z,0
2018-03-09T02:18:30.452Z,0
2018-03-09T02:19:39.977Z,0
2018-03-09T02:20:50.045Z,0
2018-03-09T02:22:00.165Z,0
2018-03-09T02:23:10.284Z,0
2018-03-09T02:24:20.071Z,0
2018-03-09T02:25:30.148Z,0
2018-03-09T02:26:39.674Z,0
2018-03-09T02:27:49.468Z,0
2018-03-09T02:28:59.531Z,0
2018-03-09T02:30:09.662Z,0
2018-03-09T02:31:19.733Z,0
2018-03-09T02:32:29.810Z,0
2018-03-09T02:33:39.866Z,0
2018-03-09T02:34:49.664Z,0
2018-03-09T02:35:59.454Z,0
2018-03-09T02:37:09.235Z,0
2018-03-09T02:38:19.024Z,0
2018-03-09T02:39:29.088Z,0
2018-03-09T02:40:38.887Z,0
2018-03-09T02:41:49.014Z,0
2018-03-09T02:42:58.814Z,0
2018-03-09T02:44:08.872Z,0
2018-03-09T02:45:18.939Z,0
2018-03-09T02:46:29.012Z,0
2018-03-09T02:47:39.096Z,0
2018-03-09T02:48:49.154Z,0
2018-03-09T02:49:59.207Z,0
2018-03-09T02:51:09.023Z,0
2018-03-09T02:52:19.087Z,0
2018-03-09T02:53:29.220Z,0
2018-03-09T02:54:39.290Z,0
2018-03-09T02:55:49.364Z,0
2018-03-09T02:56:59.151Z,0
2018-03-09T02:58:08.697Z,0
2018-03-09T02:59:18.760Z,0
2018-03-09T03:00:28.831Z,0
2018-03-09T03:01:38.633Z,0
2018-03-09T03:02:48.686Z,0
2018-03-09T03:03:58.761Z,0
2018-03-09T03:05:08.030Z,0
2018-03-09T03:06:18.102Z,0
2018-03-09T03:07:27.622Z,0
2018-03-09T03:39:39.180Z,0
2018-03-09T03:40:48.954Z,0
2018-03-09T03:41:59.006Z,0
2018-03-09T03:43:08.910Z,0
2018-03-09T03:44:18.705Z,0
2018-03-09T03:45:28.548Z,0
2018-03-09T03:46:38.837Z,0
2018-03-09T03:47:48.637Z,0
2018-03-09T03:48:58.450Z,0
2018-03-09T03:50:07.983Z,0
2018-03-09T03:51:17.852Z,0
2018-03-09T03:52:27.932Z,0
2018-03-09T03:53:37.982Z,0
2018-03-09T03:54:48.034Z,0
2018-03-09T03:55:58.098Z,0
2018-03-09T03:57:07.901Z,0
2018-03-09T03:58:17.685Z,0
2018-03-09T03:59:27.750Z,0
2018-03-09T04:00:37.809Z,0
2018-03-09T04:01:47.590Z,0
2018-03-09T04:02:57.687Z,0
2018-03-09T04:04:07.761Z,0
2018-03-09T04:05:17.829Z,0
2018-03-09T04:06:27.372Z,0
2018-03-09T04:07:37.428Z,0
2018-03-09T04:08:47.486Z,0
2018-03-09T04:09:57.556Z,0
2018-03-09T04:11:07.349Z,0
2018-03-09T04:12:16.616Z,0
2018-03-09T04:13:26.681Z,0
2018-03-09T04:14:36.794Z,0
2018-03-09T04:15:46.320Z,0
2018-03-09T04:16:56.374Z,0
2018-03-09T04:18:06.430Z,0
2018-03-09T04:19:15.692Z,0
2018-03-09T04:20:25.541Z,0
2018-03-09T04:21:35.334Z,0
2018-03-09T04:22:45.378Z,0
2018-03-09T04:23:55.227Z,0
2018-03-09T04:25:05.299Z,0
2018-03-09T04:26:15.150Z,0
2018-03-09T04:27:24.688Z,0
2018-03-09T04:28:34.760Z,0
2018-03-09T04:29:44.832Z,0
2018-03-09T04:30:54.355Z,0
2018-03-09T04:32:04.471Z,0
2018-03-09T04:33:14.269Z,0
2018-03-09T04:34:24.328Z,0
2018-03-09T04:35:33.606Z,0
2018-03-09T04:36:43.401Z,0
2018-03-09T04:37:53.489Z,0
2018-03-09T04:39:03.531Z,0
2018-03-09T04:40:13.598Z,0
2018-03-09T04:41:23.144Z,0
2018-03-09T04:42:32.931Z,0
2018-03-09T04:43:42.997Z,0
2018-03-09T04:44:52.785Z,0
2018-03-09T04:46:02.838Z,0
2018-03-09T04:47:12.894Z,0
2018-03-09T04:48:22.940Z,0
2018-03-09T04:49:33.056Z,0
2018-03-09T04:50:43.116Z,0
2018-03-09T04:51:53.180Z,0
2018-03-09T04:53:02.696Z,0
2018-03-09T04:54:12.760Z,0
2018-03-09T04:55:22.867Z,0
2018-03-09T04:56:32.676Z,0
2018-03-09T04:57:42.754Z,4
2018-03-09T04:58:52.807Z,0
2018-03-09T05:00:02.856Z,0
2018-03-09T05:01:12.919Z,4
2018-03-09T05:02:22.724Z,0
2018-03-09T05:03:32.262Z,4
2018-03-09T05:04:41.803Z,4
2018-03-09T05:05:51.874Z,4
2018-03-09T05:07:01.671Z,8
2018-03-09T05:08:11.203Z,8
2018-03-09T05:09:20.722Z,8
2018-03-09T05:10:30.837Z,12
2018-03-09T05:11:40.896Z,16
2018-03-09T05:12:50.743Z,16
2018-03-09T05:14:00.534Z,20
2018-03-09T05:15:10.589Z,20
2018-03-09T05:16:20.653Z,24
2018-03-09T05:17:30.453Z,24
2018-03-09T05:18:40.575Z,28
2018-03-09T05:19:50.378Z,32
2018-03-09T05:21:00.419Z,36
2018-03-09T05:22:10.226Z,40
2018-03-09T05:23:20.028Z,44
2018-03-09T05:24:30.086Z,56
2018-03-09T05:25:40.158Z,60
2018-03-09T05:26:49.969Z,72
2018-03-09T05:27:59.235Z,76
2018-03-09T05:29:09.026Z,88
2018-03-09T05:30:18.618Z,104
2018-03-09T05:31:27.889Z,128
2018-03-09T05:32:37.692Z,152
2018-03-09T05:33:47.757Z,180
2018-03-09T05:34:57.294Z,208
2018-03-09T05:36:07.410Z,224
2018-03-09T05:37:17.465Z,228
2018-03-09T05:38:27.267Z,228
2018-03-09T05:39:36.798Z,228
2018-03-09T05:40:46.599Z,224
2018-03-09T05:41:56.400Z,220
2018-03-09T05:43:06.207Z,220
2018-03-09T05:44:15.758Z,220
2018-03-09T05:45:25.555Z,224
2018-03-09T05:46:35.092Z,232
2018-03-09T05:47:45.154Z,240
2018-03-09T05:48:55.246Z,248
2018-03-09T05:50:05.048Z,256
2018-03-09T05:51:15.124Z,268
2018-03-09T05:52:24.642Z,280
2018-03-09T05:53:34.489Z,284
2018-03-09T05:54:44.545Z,300
2018-03-09T05:55:54.336Z,316
2018-03-09T05:57:04.132Z,344
2018-03-09T05:58:14.339Z,376
2018-03-09T05:59:23.838Z,416
2018-03-09T06:00:33.888Z,468
2018-03-09T06:01:43.685Z,524
2018-03-09T06:02:53.744Z,584
2018-03-09T06:04:03.818Z,648
2018-03-09T06:05:13.910Z,724
2018-03-09T06:06:23.699Z,784
2018-03-09T06:07:33.760Z,860
2018-03-09T06:08:43.826Z,952
2018-03-09T06:09:53.371Z,1020
2018-03-09T06:11:03.423Z,1092
2018-03-09T06:12:12.958Z,1120
2018-03-09T06:13:23.018Z,1096
2018-03-09T06:14:32.845Z,1104
2018-03-09T06:15:42.660Z,1144
2018-03-09T06:16:52.752Z,1184
2018-03-09T06:18:02.292Z,1236
2018-03-09T06:19:12.156Z,1304
2018-03-09T06:20:21.685Z,1360
2018-03-09T06:21:31.756Z,1420
2018-03-09T06:22:41.536Z,1472
2018-03-09T06:23:51.097Z,1548
2018-03-09T06:25:01.174Z,1564
2018-03-09T06:26:11.283Z,1524
2018-03-09T06:27:21.351Z,1484
2018-03-09T06:28:31.150Z,1500
2018-03-09T06:29:41.195Z,1564
2018-03-09T06:30:50.996Z,1604
2018-03-09T06:32:00.790Z,1644
2018-03-09T06:33:10.853Z,1684
2018-03-09T06:34:20.898Z,1724
2018-03-09T06:35:30.445Z,1776
2018-03-09T06:36:40.257Z,1856
2018-03-09T06:37:49.775Z,1952
2018-03-09T06:38:59.585Z,2072
2018-03-09T06:40:09.177Z,2240
2018-03-09T06:41:19.226Z,2284
2018-03-09T06:42:29.026Z,2120
2018-03-09T06:43:38.835Z,2176
2018-03-09T06:44:48.100Z,1876
2018-03-09T06:45:57.909Z,1624
2018-03-09T06:47:07.961Z,1616
2018-03-09T06:48:17.495Z,1744
2018-03-09T06:49:27.562Z,1884
2018-03-09T06:50:37.629Z,1996
2018-03-09T06:51:47.759Z,2056
2018-03-09T06:52:57.298Z,2124
2018-03-09T06:54:06.845Z,2264
2018-03-09T06:55:16.651Z,2796
2018-03-09T06:56:26.181Z,2232
2018-03-09T06:57:36.241Z,2224
2018-03-09T06:58:45.776Z,2280
2018-03-09T06:59:55.592Z,2396
2018-03-09T07:01:05.714Z,2524
2018-03-09T07:02:15.505Z,2636
2018-03-09T07:03:25.293Z,2656
2018-03-09T07:04:35.093Z,2652
2018-03-09T07:05:44.882Z,3200
2018-03-09T07:06:54.702Z,2780
2018-03-09T07:08:04.271Z,2600
2018-03-09T07:09:14.187Z,2652
2018-03-09T07:10:24.262Z,2768
2018-03-09T07:11:33.807Z,2848
2018-03-09T07:12:43.603Z,2908
2018-03-09T07:13:53.669Z,2792
2018-03-09T07:15:03.730Z,2448
2018-03-09T07:16:13.783Z,2080
2018-03-09T07:17:23.853Z,1900
2018-03-09T07:18:33.640Z,1740
2018-03-09T07:19:43.440Z,1588
2018-03-09T07:20:53.523Z,1588
2018-03-09T07:22:03.312Z,1728
2018-03-09T07:23:13.113Z,1820
2018-03-09T07:24:23.182Z,1828
2018-03-09T07:25:33.014Z,1776
2018-03-09T07:26:42.596Z,1708
2018-03-09T07:27:52.729Z,1772
2018-03-09T07:29:02.798Z,1956
2018-03-09T07:30:12.854Z,2228
2018-03-09T07:31:22.382Z,2524
2018-03-09T07:32:32.527Z,2696
2018-03-09T07:33:42.677Z,2836
2018-03-09T07:34:52.526Z,2856
2018-03-09T07:36:02.597Z,2820
2018-03-09T07:37:12.132Z,2720
2018-03-09T07:38:22.205Z,2620
2018-03-09T07:39:32.279Z,2552
2018-03-09T07:40:42.201Z,2500
2018-03-09T07:41:51.797Z,2416
2018-03-09T07:43:01.853Z,2292
2018-03-09T07:44:11.908Z,2140
2018-03-09T07:45:21.719Z,1976
2018-03-09T07:46:31.658Z,1848
2018-03-09T07:47:41.450Z,1708
2018-03-09T07:48:51.248Z,1524
2018-03-09T07:50:01.384Z,1308
2018-03-09T07:51:11.444Z,1072
2018-03-09T07:52:21.231Z,896
2018-03-09T07:53:31.310Z,788
2018-03-09T07:54:41.105Z,740
2018-03-09T07:55:51.175Z,708
2018-03-09T07:57:00.750Z,684
2018-03-09T07:58:10.821Z,664
2018-03-09T07:59:20.637Z,652
2018-03-09T08:00:30.693Z,648
2018-03-09T08:01:40.475Z,668
2018-03-09T08:02:50.017Z,704
2018-03-09T08:04:00.129Z,776
2018-03-09T08:05:10.018Z,860
2018-03-09T08:06:19.680Z,908
2018-03-09T08:07:29.886Z,884
2018-03-09T08:08:39.422Z,840
2018-03-09T08:09:49.247Z,820
2018-03-09T08:10:59.424Z,796
2018-03-09T08:12:09.395Z,764
2018-03-09T08:13:19.488Z,728
2018-03-09T08:14:29.620Z,704
2018-03-09T08:15:39.815Z,688
2018-03-09T08:16:49.405Z,652
2018-03-09T08:17:58.973Z,588
2018-03-09T08:19:09.094Z,528
2018-03-09T08:20:18.938Z,512
2018-03-09T08:21:29.420Z,544
2018-03-09T08:22:39.608Z,596
2018-03-09T08:23:49.751Z,688
2018-03-09T08:24:59.688Z,832
2018-03-09T08:26:09.830Z,928
2018-03-09T08:27:19.405Z,932
2018-03-09T08:28:29.321Z,928
2018-03-09T08:29:39.506Z,960
2018-03-09T08:30:49.368Z,1080
2018-03-09T08:31:59.215Z,1260
2018-03-09T08:33:09.336Z,1380
2018-03-09T08:34:19.453Z,1376
2018-03-09T08:35:29.603Z,1288
2018-03-09T08:36:39.852Z,1188
2018-03-09T08:37:50.005Z,1088
2018-03-09T08:39:00.133Z,984
2018-03-09T08:40:10.298Z,916
2018-03-09T08:41:20.456Z,876
2018-03-09T08:42:30.563Z,876
2018-03-09T08:43:40.699Z,884
2018-03-09T08:44:50.841Z,912
2018-03-09T08:46:01.016Z,944
2018-03-09T08:47:11.097Z,972
2018-03-09T08:48:20.939Z,964
2018-03-09T08:49:31.054Z,924
2018-03-09T08:50:40.885Z,908
2018-03-09T08:51:51.027Z,964
2018-03-09T08:53:00.872Z,1040
2018-03-09T08:54:11.009Z,1104
2018-03-09T08:55:21.121Z,1160
2018-03-09T08:56:30.960Z,1200
2018-03-09T08:57:40.851Z,1252
2018-03-09T08:58:50.965Z,1272
2018-03-09T09:00:00.539Z,1220
2018-03-09T09:01:10.726Z,1136
2018-03-09T09:02:20.836Z,1096
2018-03-09T09:03:31.020Z,1096
2018-03-09T09:04:41.114Z,1140
2018-03-09T09:05:51.109Z,1196
2018-03-09T09:07:00.397Z,1244
2018-03-09T09:08:10.294Z,1224
2018-03-09T09:09:20.646Z,1160
2018-03-09T09:10:30.767Z,1120
2018-03-09T09:11:40.681Z,1152
2018-03-09T09:12:50.796Z,1228
2018-03-09T09:14:01.009Z,1288
2018-03-09T09:15:11.122Z,1336
2018-03-09T09:16:21.223Z,1396
2018-03-09T09:17:31.308Z,1496
2018-03-09T09:18:41.396Z,1604
2018-03-09T09:19:51.698Z,1672
2018-03-09T09:21:01.900Z,1756
2018-03-09T09:22:12.075Z,1884
2018-03-09T09:23:22.165Z,2080
2018-03-09T09:24:32.292Z,2296
2018-03-09T09:25:42.395Z,2520
2018-03-09T09:26:52.496Z,2768
2018-03-09T09:28:02.598Z,3008
2018-03-09T09:29:12.714Z,3276
2018-03-09T09:30:22.852Z,3672
2018-03-09T09:31:32.988Z,3992
2018-03-09T09:32:42.863Z,4012
2018-03-09T09:33:52.689Z,3892
2018-03-09T09:35:02.790Z,3932
2018-03-09T09:36:12.617Z,4380
2018-03-09T09:37:22.703Z,5180
2018-03-09T09:38:32.546Z,9460
2018-03-09T09:39:42.384Z,8400
2018-03-09T09:40:52.245Z,7024
2018-03-09T09:42:02.088Z,7972
2018-03-09T09:43:11.738Z,9944
2018-03-09T09:44:21.058Z,9308
2018-03-09T09:45:31.152Z,10136
2018-03-09T09:46:41.272Z,6356
2018-03-09T09:47:50.585Z,9256
2018-03-09T09:49:00.512Z,7764
2018-03-09T09:50:10.684Z,8096
2018-03-09T09:51:20.764Z,7032
2018-03-09T09:52:30.871Z,9168
2018-03-09T09:53:40.735Z,5472
2018-03-09T09:54:50.841Z,5188
2018-03-09T09:56:00.682Z,5212
2018-03-09T09:57:10.777Z,5312
2018-03-09T09:58:20.608Z,7148
2018-03-09T09:59:30.835Z,7736
2018-03-09T10:00:40.939Z,5572
2018-03-09T10:01:51.129Z,8940
2018-03-09T10:03:01.237Z,7992
2018-03-09T10:04:11.063Z,7748
2018-03-09T10:05:21.397Z,9092
2018-03-09T10:06:31.501Z,8784
2018-03-09T10:07:41.769Z,10744
2018-03-09T10:08:51.878Z,10652
2018-03-09T10:10:01.989Z,10644
2018-03-09T10:11:12.236Z,11596
2018-03-09T10:12:22.343Z,7604
2018-03-09T10:13:32.493Z,6916
2018-03-09T10:14:42.600Z,7112
2018-03-09T10:15:52.772Z,7828
2018-03-09T10:17:02.600Z,9428
2018-03-09T10:18:12.435Z,9312
2018-03-09T10:19:22.001Z,8688
2018-03-09T10:20:31.819Z,9672
2018-03-09T10:21:41.710Z,9312
2018-03-09T10:22:51.833Z,10604
2018-03-09T10:24:01.665Z,11608
2018-03-09T10:25:11.562Z,8928
2018-03-09T10:26:21.393Z,10508
2018-03-09T10:27:31.222Z,9280
2018-03-09T10:28:41.325Z,9796
2018-03-09T10:29:51.390Z,10860
2018-03-09T10:31:01.554Z,8536
2018-03-09T10:32:11.644Z,8568
2018-03-09T10:33:21.720Z,9508
2018-03-09T10:34:31.822Z,9016
2018-03-09T10:35:41.643Z,7972
2018-03-09T10:36:51.714Z,7528
2018-03-09T10:38:01.790Z,6676
2018-03-09T10:39:11.358Z,6544
2018-03-09T10:40:21.425Z,6992
2018-03-09T10:41:31.506Z,5744
2018-03-09T10:42:41.640Z,5680
2018-03-09T10:43:51.727Z,5752
2018-03-09T10:45:01.543Z,5832
2018-03-09T10:46:11.634Z,5728
2018-03-09T10:47:21.485Z,5564
2018-03-09T10:48:31.865Z,5448
2018-03-09T10:49:41.696Z,5396
2018-03-09T10:50:51.782Z,5116
2018-03-09T10:52:01.588Z,4976
2018-03-09T10:53:11.710Z,4868
2018-03-09T10:54:21.977Z,4820
2018-03-09T10:55:31.526Z,4664
2018-03-09T10:56:41.326Z,4372
2018-03-09T10:57:50.857Z,4284
2018-03-09T10:59:00.674Z,4472
2018-03-09T11:00:10.537Z,4852
2018-03-09T11:01:20.379Z,5232
2018-03-09T11:02:30.452Z,6992
2018-03-09T11:03:40.279Z,5600
2018-03-09T11:04:50.082Z,8180
2018-03-09T11:06:00.209Z,7292
2018-03-09T11:07:10.022Z,8036
2018-03-09T11:08:19.856Z,7856
2018-03-09T11:09:29.920Z,9984
2018-03-09T11:10:40.008Z,11312
2018-03-09T11:11:49.892Z,8564
2018-03-09T11:12:59.497Z,7956
2018-03-09T11:14:08.533Z,6296
2018-03-09T11:15:18.617Z,8880
2018-03-09T11:16:28.695Z,5808
2018-03-09T11:17:38.561Z,5336
2018-03-09T11:18:48.596Z,5328
2018-03-09T11:19:58.682Z,5744
2018-03-09T11:21:08.482Z,5480
2018-03-09T11:22:18.129Z,5220
2018-03-09T11:23:27.976Z,5084
2018-03-09T11:24:38.074Z,5100
2018-03-09T11:25:48.148Z,5572
2018-03-09T11:26:57.941Z,5036
2018-03-09T11:28:08.042Z,4676
2018-03-09T11:29:17.904Z,4148
2018-03-09T11:30:27.720Z,4096
2018-03-09T11:31:37.002Z,4612
2018-03-09T11:32:47.311Z,6348
2018-03-09T11:33:57.381Z,5808
2018-03-09T11:35:07.240Z,8468
2018-03-09T11:36:17.312Z,7256
2018-03-09T11:37:27.116Z,6744
2018-03-09T11:38:37.164Z,7628
2018-03-09T11:39:47.280Z,5884
2018-03-09T11:40:57.137Z,5500
2018-03-09T11:42:07.315Z,5200
2018-03-09T11:43:17.133Z,4488
2018-03-09T11:44:27.246Z,4140
2018-03-09T11:45:37.051Z,3936
2018-03-09T11:46:47.270Z,3760
2018-03-09T11:47:57.073Z,3668
2018-03-09T11:49:07.153Z,3684
2018-03-09T11:50:16.961Z,3752
2018-03-09T11:51:27.341Z,3780
2018-03-09T11:52:37.663Z,3860
2018-03-09T11:53:47.487Z,4056
2018-03-09T11:54:57.296Z,4240
2018-03-09T11:56:06.845Z,4208
2018-03-09T11:57:17.176Z,3952
2018-03-09T11:58:27.312Z,3680
2018-03-09T11:59:37.405Z,3500
2018-03-09T12:00:47.536Z,3420
2018-03-09T12:01:57.079Z,3396
2018-03-09T12:03:07.156Z,3388
2018-03-09T12:04:17.008Z,3356
2018-03-09T12:05:27.181Z,3368
2018-03-09T12:06:36.783Z,3428
2018-03-09T12:07:46.889Z,3480
2018-03-09T12:08:56.693Z,3524
2018-03-09T12:10:06.864Z,3580
2018-03-09T12:11:16.931Z,3576
2018-03-09T12:12:27.011Z,3524
2018-03-09T12:13:37.071Z,3484
2018-03-09T12:14:47.201Z,3392
2018-03-09T12:15:57.354Z,3220
2018-03-09T12:17:07.159Z,3020
2018-03-09T12:18:16.972Z,2856
2018-03-09T12:19:26.788Z,2756
2018-03-09T12:20:36.861Z,2716
2018-03-09T12:21:46.993Z,2692
2018-03-09T12:22:56.805Z,2688
2018-03-09T12:24:06.616Z,2712
2018-03-09T12:25:16.689Z,2712
2018-03-09T12:26:26.795Z,2680
2018-03-09T12:27:36.952Z,2608
2018-03-09T12:28:47.039Z,2536
2018-03-09T12:29:57.123Z,2512
2018-03-09T12:31:06.939Z,2532
2018-03-09T12:32:17.016Z,2588
2018-03-09T12:33:26.831Z,2616
2018-03-09T12:34:36.903Z,2604
2018-03-09T12:35:47.200Z,2556
2018-03-09T12:36:57.270Z,2476
2018-03-09T12:38:07.355Z,2376
2018-03-09T12:39:17.209Z,2284
2018-03-09T12:40:27.055Z,2208
2018-03-09T12:41:37.137Z,2176
2018-03-09T12:42:46.999Z,2124
2018-03-09T12:43:56.792Z,2068
2018-03-09T12:45:06.995Z,2056
2018-03-09T12:46:17.346Z,2088
2018-03-09T12:47:27.235Z,2140
2018-03-09T12:48:37.068Z,2204
2018-03-09T12:49:46.898Z,2236
2018-03-09T12:50:56.767Z,2236
2018-03-09T12:52:06.333Z,2216
2018-03-09T12:53:15.904Z,2220
2018-03-09T12:54:25.743Z,2276
2018-03-09T12:55:35.617Z,2344
2018-03-09T12:56:45.470Z,2408
2018-03-09T12:57:55.553Z,2444
2018-03-09T12:59:05.088Z,2428
2018-03-09T13:00:15.248Z,2396
2018-03-09T13:01:25.048Z,2368
2018-03-09T13:02:34.912Z,2336
2018-03-09T13:03:44.991Z,2324
2018-03-09T13:04:55.072Z,2356
2018-03-09T13:06:04.888Z,2400
2018-03-09T13:07:14.975Z,2420
2018-03-09T13:08:25.096Z,2400
2018-03-09T13:09:34.920Z,2324
2018-03-09T13:10:44.990Z,2212
2018-03-09T13:11:55.093Z,2100
2018-03-09T13:13:04.910Z,2008
2018-03-09T13:14:14.999Z,1960
2018-03-09T13:15:24.816Z,1972
2018-03-09T13:16:34.611Z,2004
2018-03-09T13:17:44.703Z,2000
2018-03-09T13:18:54.514Z,1948
2018-03-09T13:20:04.407Z,1900
2018-03-09T13:21:14.213Z,1856
2018-03-09T13:22:23.800Z,1816
2018-03-09T13:23:33.065Z,1760
2018-03-09T13:24:42.875Z,1688
2018-03-09T13:25:52.740Z,1612
2018-03-09T13:27:02.933Z,1564
2018-03-09T13:28:13.007Z,1508
2018-03-09T13:29:22.834Z,1468
2018-03-09T13:30:32.921Z,1448
2018-03-09T13:31:42.507Z,1420
2018-03-09T13:32:52.055Z,1372
2018-03-09T13:34:01.722Z,1316
2018-03-09T13:35:11.299Z,1288
2018-03-09T13:36:21.110Z,1284
2018-03-09T13:37:30.921Z,1252
2018-03-09T13:38:41.040Z,1196
2018-03-09T13:39:51.112Z,1144
2018-03-09T13:41:00.918Z,1112
2018-03-09T13:42:11.025Z,1104
2018-03-09T13:43:21.158Z,1104
2018-03-09T13:44:31.241Z,1120
2018-03-09T13:45:41.325Z,1128
2018-03-09T13:46:51.422Z,1140
2018-03-09T13:48:01.229Z,1144
2018-03-09T13:49:11.148Z,1144
2018-03-09T13:50:21.234Z,1152
2018-03-09T13:51:31.348Z,1172
2018-03-09T13:52:41.472Z,1204
2018-03-09T13:53:51.286Z,1236
2018-03-09T13:55:01.372Z,1248
2018-03-09T13:56:11.481Z,1252
2018-03-09T13:57:20.779Z,1236
2018-03-09T13:58:30.596Z,1236
2018-03-09T13:59:40.409Z,1248
2018-03-09T14:00:49.941Z,1252
2018-03-09T14:01:59.504Z,1252
2018-03-09T14:03:09.353Z,1256
2018-03-09T14:04:19.439Z,1268
2018-03-09T14:05:29.512Z,1328
2018-03-09T14:06:39.642Z,1452
2018-03-09T14:07:49.745Z,1624
2018-03-09T14:08:59.589Z,1788
2018-03-09T14:10:09.664Z,1844
2018-03-09T14:11:19.730Z,1860
2018-03-09T14:12:29.810Z,1944
2018-03-09T14:13:39.893Z,2136
2018-03-09T14:14:50.023Z,2348
2018-03-09T14:16:00.092Z,2468
2018-03-09T14:17:09.903Z,2508
2018-03-09T14:18:19.729Z,2824
2018-03-09T14:19:29.800Z,2424
2018-03-09T14:20:40.412Z,2212
2018-03-09T14:21:50.231Z,2084
2018-03-09T14:23:00.324Z,2072
2018-03-09T14:24:10.189Z,2040
2018-03-09T14:25:20.261Z,1676
2018-03-09T14:26:30.316Z,1596
2018-03-09T14:27:39.867Z,1576
2018-03-09T14:28:49.676Z,1820
2018-03-09T14:29:59.807Z,1680
2018-03-09T14:31:09.902Z,1756
2018-03-09T14:32:19.982Z,1696
2018-03-09T14:33:30.054Z,1608
2018-03-09T14:34:40.135Z,1452
2018-03-09T14:35:50.259Z,1300
2018-03-09T14:37:00.515Z,1252
2018-03-09T14:38:10.340Z,1248
2018-03-09T14:39:19.900Z,1272
2018-03-09T14:40:29.987Z,1288
2018-03-09T14:41:39.599Z,1264
2018-03-09T14:42:49.408Z,1208
2018-03-09T14:43:59.487Z,1144
2018-03-09T14:45:09.302Z,1124
2018-03-09T14:46:19.136Z,1172
2018-03-09T14:47:29.239Z,1264
2018-03-09T14:48:39.066Z,1372
2018-03-09T14:49:49.128Z,1492
2018-03-09T14:50:58.953Z,1636
2018-03-09T14:52:08.752Z,1748
2018-03-09T14:53:18.853Z,1820
2018-03-09T14:54:28.143Z,1864
2018-03-09T14:55:38.205Z,1896
2018-03-09T14:56:47.783Z,1928
2018-03-09T14:57:57.954Z,1936
2018-03-09T14:59:07.750Z,1936
2018-03-09T15:00:17.292Z,1920
2018-03-09T15:01:27.116Z,1868
2018-03-09T15:02:37.294Z,1808
2018-03-09T15:03:47.121Z,1764
2018-03-09T15:04:56.669Z,1756
2018-03-09T15:06:06.516Z,1784
2018-03-09T15:07:16.331Z,1800
2018-03-09T15:08:26.150Z,1764
2018-03-09T15:09:35.717Z,1700
2018-03-09T15:10:45.816Z,1600
2018-03-09T15:11:55.903Z,1472
2018-03-09T15:13:05.983Z,1340
2018-03-09T15:14:16.061Z,1204
2018-03-09T15:15:26.151Z,1084
2018-03-09T15:16:35.995Z,988
2018-03-09T15:17:46.531Z,928
2018-03-09T15:18:56.835Z,880
2018-03-09T15:20:06.889Z,832
2018-03-09T15:21:16.711Z,780
2018-03-09T15:22:26.351Z,748
2018-03-09T15:23:35.981Z,736
2018-03-09T15:24:46.080Z,724
2018-03-09T15:25:56.163Z,700
2018-03-09T15:27:06.032Z,676
2018-03-09T15:28:16.127Z,660
2018-03-09T15:29:25.969Z,636
2018-03-09T15:30:36.051Z,624
2018-03-09T15:31:46.153Z,616
2018-03-09T15:32:55.986Z,612
2018-03-09T15:34:06.114Z,604
2018-03-09T15:35:16.227Z,588
2018-03-09T15:36:26.378Z,576
2018-03-09T15:37:36.214Z,572
2018-03-09T15:38:46.371Z,560
2018-03-09T15:39:56.501Z,548
2018-03-09T15:41:06.071Z,528
2018-03-09T15:42:15.098Z,524
2018-03-09T15:43:25.186Z,504
2018-03-09T15:44:35.061Z,472
2018-03-09T15:45:45.152Z,440
2018-03-09T15:46:54.964Z,412
2018-03-09T15:48:05.052Z,396
2018-03-09T15:49:14.603Z,368
2018-03-09T15:50:24.411Z,336
2018-03-09T15:51:34.220Z,300
2018-03-09T15:52:44.326Z,276
2018-03-09T15:53:54.139Z,264
2018-03-09T15:55:04.254Z,256
2018-03-09T15:56:14.422Z,252
2018-03-09T15:57:24.538Z,240
2018-03-09T15:58:34.651Z,228
2018-03-09T15:59:44.488Z,208
2018-03-09T16:00:54.312Z,188
2018-03-09T16:02:03.924Z,180
2018-03-09T16:03:13.809Z,172
2018-03-09T16:04:23.894Z,172
2018-03-09T16:05:33.438Z,188
2018-03-09T16:06:43.515Z,208
2018-03-09T16:07:53.629Z,220
2018-03-09T16:09:03.710Z,224
2018-03-09T16:10:13.785Z,216
2018-03-09T16:11:23.585Z,208
2018-03-09T16:12:33.445Z,200
2018-03-09T16:13:42.776Z,184
2018-03-09T16:14:52.859Z,168
2018-03-09T16:16:02.671Z,156
2018-03-09T16:17:11.958Z,148
2018-03-09T16:18:21.501Z,140
2018-03-09T16:19:31.317Z,128
2018-03-09T16:20:41.426Z,120
2018-03-09T16:21:51.256Z,112
2018-03-09T16:23:01.339Z,108
2018-03-09T16:24:11.636Z,100
2018-03-09T16:25:21.777Z,100
2018-03-09T16:26:31.856Z,104
2018-03-09T16:27:41.692Z,100
2018-03-09T16:28:51.793Z,104
2018-03-09T16:30:01.607Z,104
2018-03-09T16:31:11.199Z,100
2018-03-09T16:32:20.779Z,96
2018-03-09T16:33:30.593Z,84
2018-03-09T16:34:40.679Z,72
2018-03-09T16:35:50.749Z,68
2018-03-09T16:37:00.627Z,64